Time;durP1;ratioP1;P1;durP2;ratioP2;P2;SDS_P1;SDS_P2;PMS_P1;PMS_P2;Temp;Humidity;BMP_temperature;BMP_pressure;BME280_temperature;BME280_humidity;BME280_pressure;Samples;Min_cycle;Max_cycle;Signal;HPM_P1;HPM_P2
2022/01/15 00:01:51;;;;;;;19.55;12.07;;;;;;;;;;5138047;27;20035;-74
2022/01/15 00:04:17;;;;;;;26.00;14.00;;;;;;;;;;5138030;27;20031;-74
2022/01/15 00:06:44;;;;;;;21.55;12.45;;;;;;;;;;5138177;27;20058;-74
2022/01/15 00:09:10;;;;;;;25.38;14.07;;;;;;;;;;5138438;27;20031;-74
2022/01/15 00:11:37;;;;;;;28.27;15.30;;;;;;;;;;5137717;27;20042;-74
2022/01/15 00:14:22;;;;;;;36.53;19.00;;;;;;;;;;5137412;27;20039;-74
2022/01/15 00:16:56;;;;;;;48.30;23.65;;;;;;;;;;5138143;27;20037;-74
2022/01/15 00:19:32;;;;;;;26.88;14.95;;;;;;;;;;5137235;27;20045;-74
2022/01/15 00:21:58;;;;;;;32.95;15.45;;;;;;;;;;5137744;27;20568;-74
2022/01/15 00:24:24;;;;;;;42.50;19.65;;;;;;;;;;5137540;27;20122;-74
2022/01/15 00:26:50;;;;;;;33.70;15.60;;;;;;;;;;5137228;27;20098;-74
2022/01/15 00:29:17;;;;;;;42.47;19.77;;;;;;;;;;5137752;27;20154;-74
2022/01/15 00:31:43;;;;;;;31.15;15.63;;;;;;;;;;5137318;27;20035;-73
2022/01/15 00:34:09;;;;;;;34.35;16.02;;;;;;;;;;5136860;27;20426;-73
2022/01/15 00:36:35;;;;;;;33.78;16.58;;;;;;;;;;5137256;27;20070;-73
2022/01/15 00:39:01;;;;;;;26.30;13.88;;;;;;;;;;5137852;27;20031;-73
2022/01/15 00:41:28;;;;;;;10.57;6.63;;;;;;;;;;5136805;27;20041;-73
2022/01/15 00:43:54;;;;;;;13.50;6.43;;;;;;;;;;5137154;27;20027;-73
2022/01/15 00:46:20;;;;;;;15.75;9.05;;;;;;;;;;5137368;27;20034;-73
2022/01/15 00:48:46;;;;;;;19.02;10.18;;;;;;;;;;5137200;27;20472;-73
2022/01/15 00:51:12;;;;;;;17.63;10.95;;;;;;;;;;5136661;27;20063;-74
2022/01/15 00:53:38;;;;;;;13.52;8.00;;;;;;;;;;5136917;27;20038;-74
2022/01/15 00:56:05;;;;;;;17.15;9.68;;;;;;;;;;5136888;27;20103;-73
2022/01/15 00:58:31;;;;;;;18.63;9.13;;;;;;;;;;5136529;27;20031;-74
2022/01/15 01:00:57;;;;;;;18.15;10.05;;;;;;;;;;5136393;27;20061;-73
2022/01/15 01:03:23;;;;;;;20.88;11.50;;;;;;;;;;5136341;27;20066;-74
2022/01/15 01:05:49;;;;;;;26.65;13.95;;;;;;;;;;5136377;27;20113;-73
2022/01/15 01:08:15;;;;;;;18.92;9.80;;;;;;;;;;5136661;27;20118;-74
2022/01/15 01:10:50;;;;;;;26.20;12.77;;;;;;;;;;5137009;27;20089;-73
2022/01/15 01:24:16;;;;;;;26.08;12.80;;;;;;;;;;5136149;27;20377;-73
2022/01/15 01:26:55;;;;;;;22.88;12.02;;;;;;;;;;5136587;27;20066;-73
2022/01/15 01:32:04;;;;;;;17.65;10.02;;;;;;;;;;5136747;27;20453;-73
2022/01/15 01:34:33;;;;;;;37.10;18.88;;;;;;;;;;5136508;27;20466;-74
2022/01/15 01:37:07;;;;;;;29.27;14.18;;;;;;;;;;5136320;27;20080;-73
2022/01/15 01:39:42;;;;;;;26.23;12.95;;;;;;;;;;5137517;27;20114;-74
2022/01/15 01:42:24;;;;;;;52.30;23.33;;;;;;;;;;5136291;27;20115;-74
2022/01/15 01:45:01;;;;;;;33.88;16.92;;;;;;;;;;5135595;27;20466;-73
2022/01/15 01:47:40;;;;;;;24.35;11.82;;;;;;;;;;5136170;27;20031;-73
2022/01/15 01:50:09;;;;;;;23.88;11.10;;;;;;;;;;5135403;27;20035;-73
2022/01/15 01:52:36;;;;;;;19.60;10.13;;;;;;;;;;5136142;27;20046;-73
2022/01/15 01:55:02;;;;;;;17.35;9.15;;;;;;;;;;5135830;27;20095;-73
2022/01/15 01:57:28;;;;;;;16.67;9.70;;;;;;;;;;5136092;27;20031;-73
2022/01/15 01:59:54;;;;;;;14.43;8.13;;;;;;;;;;5136393;27;20041;-73
2022/01/15 02:02:20;;;;;;;15.40;8.77;;;;;;;;;;5135950;27;20030;-73
2022/01/15 02:04:47;;;;;;;16.50;9.13;;;;;;;;;;5135646;27;20118;-73
2022/01/15 02:07:14;;;;;;;10.23;6.05;;;;;;;;;;5136005;27;20035;-73
2022/01/15 02:09:41;;;;;;;10.13;6.00;;;;;;;;;;5136107;27;20473;-73
2022/01/15 02:12:07;;;;;;;9.98;5.55;;;;;;;;;;5135547;27;20466;-73
2022/01/15 02:14:33;;;;;;;10.90;5.90;;;;;;;;;;5135332;27;20076;-73
2022/01/15 02:17:00;;;;;;;15.52;8.02;;;;;;;;;;5135471;28;20032;-74
2022/01/15 02:19:30;;;;;;;29.80;13.48;;;;;;;;;;5135446;28;20080;-73
2022/01/15 02:24:41;;;;;;;20.08;10.13;;;;;;;;;;5135041;28;20064;-73
2022/01/15 02:27:07;;;;;;;12.57;7.32;;;;;;;;;;5135165;28;20027;-73
2022/01/15 02:29:33;;;;;;;15.07;6.55;;;;;;;;;;5136088;28;20027;-74
2022/01/15 02:31:59;;;;;;;15.43;8.23;;;;;;;;;;5135558;28;20064;-73
2022/01/15 02:34:25;;;;;;;16.00;6.95;;;;;;;;;;5135260;28;20031;-74
2022/01/15 02:36:51;;;;;;;9.75;5.57;;;;;;;;;;5135409;28;20033;-74
2022/01/15 02:39:17;;;;;;;9.25;5.13;;;;;;;;;;5135540;28;20497;-74
2022/01/15 02:41:43;;;;;;;12.85;5.80;;;;;;;;;;5134979;28;20039;-74
2022/01/15 02:44:16;;;;;;;11.45;6.20;;;;;;;;;;5135371;28;20035;-73
2022/01/15 02:49:14;;;;;;;18.52;8.95;;;;;;;;;;5135085;28;20062;-74
2022/01/15 02:51:40;;;;;;;19.58;7.85;;;;;;;;;;5134940;28;20520;-74
2022/01/15 02:54:07;;;;;;;15.88;8.25;;;;;;;;;;5134936;28;20109;-74
2022/01/15 02:56:42;;;;;;;19.00;9.50;;;;;;;;;;5136729;27;20040;-73
2022/01/15 02:59:10;;;;;;;17.05;8.50;;;;;;;;;;5139808;27;20023;-73
2022/01/15 03:01:36;;;;;;;23.90;11.70;;;;;;;;;;5139126;27;20159;-73
2022/01/15 03:04:04;;;;;;;17.70;9.00;;;;;;;;;;5139052;27;20122;-73
2022/01/15 03:06:30;;;;;;;14.93;7.72;;;;;;;;;;5139015;27;20175;-73
2022/01/15 03:08:56;;;;;;;11.13;5.47;;;;;;;;;;5139601;27;20140;-74
2022/01/15 03:11:23;;;;;;;9.48;3.85;;;;;;;;;;5138642;27;20561;-73
2022/01/15 03:13:50;;;;;;;6.63;3.90;;;;;;;;;;5138983;27;20043;-73
2022/01/15 03:16:20;;;;;;;8.13;4.38;;;;;;;;;;5138861;27;20043;-73
2022/01/15 03:18:46;;;;;;;14.80;6.25;;;;;;;;;;5139083;27;20037;-74
2022/01/15 03:21:13;;;;;;;9.02;4.38;;;;;;;;;;5138441;27;20113;-74
2022/01/15 03:23:39;;;;;;;7.85;4.60;;;;;;;;;;5138704;27;20046;-73
2022/01/15 03:26:07;;;;;;;8.68;5.13;;;;;;;;;;5138905;27;20026;-73
2022/01/15 03:28:34;;;;;;;12.07;5.57;;;;;;;;;;5138530;27;20514;-73
2022/01/15 03:31:00;;;;;;;10.43;5.43;;;;;;;;;;5138473;27;20377;-73
2022/01/15 03:33:27;;;;;;;7.57;4.68;;;;;;;;;;5138029;27;20057;-74
2022/01/15 03:35:53;;;;;;;8.88;5.22;;;;;;;;;;5138470;27;20035;-73
2022/01/15 03:38:19;;;;;;;15.88;8.65;;;;;;;;;;5138435;27;20035;-73
2022/01/15 03:40:45;;;;;;;19.63;9.77;;;;;;;;;;5138363;27;20094;-73
2022/01/15 03:43:11;;;;;;;30.33;15.02;;;;;;;;;;5138039;27;20027;-73
2022/01/15 03:45:37;;;;;;;28.55;13.02;;;;;;;;;;5138283;27;20139;-73
2022/01/15 03:48:04;;;;;;;38.42;18.33;;;;;;;;;;5138074;27;20485;-73
2022/01/15 03:50:30;;;;;;;42.40;19.23;;;;;;;;;;5138562;27;20076;-74
2022/01/15 03:52:56;;;;;;;32.03;16.52;;;;;;;;;;5138128;27;20125;-74
2022/01/15 03:55:23;;;;;;;31.25;15.75;;;;;;;;;;5138155;27;20102;-74
2022/01/15 03:57:49;;;;;;;23.33;12.55;;;;;;;;;;5137979;27;20511;-74
2022/01/15 04:00:21;;;;;;;22.55;12.65;;;;;;;;;;5138087;27;20031;-74
2022/01/15 04:02:48;;;;;;;16.23;9.55;;;;;;;;;;5137666;27;20042;-73
2022/01/15 04:05:14;;;;;;;15.60;8.75;;;;;;;;;;5137642;27;20035;-73
2022/01/15 04:07:40;;;;;;;13.82;8.20;;;;;;;;;;5137522;27;20026;-73
2022/01/15 04:10:07;;;;;;;14.00;8.15;;;;;;;;;;5138173;27;20031;-73
2022/01/15 04:12:33;;;;;;;12.82;7.20;;;;;;;;;;5137440;27;20047;-73
2022/01/15 04:14:59;;;;;;;19.65;8.48;;;;;;;;;;5138038;27;20039;-73
2022/01/15 04:17:26;;;;;;;13.55;7.10;;;;;;;;;;5137904;27;20039;-73
2022/01/15 04:19:52;;;;;;;19.60;10.95;;;;;;;;;;5137737;27;20035;-73
2022/01/15 04:22:18;;;;;;;25.83;13.80;;;;;;;;;;5137416;27;20031;-73
2022/01/15 04:24:45;;;;;;;35.30;18.65;;;;;;;;;;5137535;27;20069;-73
2022/01/15 04:27:11;;;;;;;25.77;15.60;;;;;;;;;;5137479;27;20129;-73
2022/01/15 04:29:37;;;;;;;22.52;12.68;;;;;;;;;;5138092;27;20062;-73
2022/01/15 04:32:03;;;;;;;21.35;11.95;;;;;;;;;;5137657;27;20104;-73
2022/01/15 04:34:30;;;;;;;20.45;11.82;;;;;;;;;;5137200;27;20565;-73
2022/01/15 04:37:03;;;;;;;23.30;14.57;;;;;;;;;;5137576;27;20065;-73
2022/01/15 04:39:29;;;;;;;33.47;18.48;;;;;;;;;;5137221;27;20027;-73
2022/01/15 04:41:56;;;;;;;29.40;17.20;;;;;;;;;;5137067;27;20486;-73
2022/01/15 04:44:22;;;;;;;20.95;13.35;;;;;;;;;;5137141;27;20062;-73
2022/01/15 04:46:48;;;;;;;13.02;6.45;;;;;;;;;;5137340;27;20035;-73
2022/01/15 04:49:14;;;;;;;11.55;6.63;;;;;;;;;;5137190;27;20495;-73
2022/01/15 04:51:40;;;;;;;7.78;4.32;;;;;;;;;;5136957;27;20081;-73
2022/01/15 04:54:06;;;;;;;9.68;5.10;;;;;;;;;;5137268;27;20492;-73
2022/01/15 04:56:32;;;;;;;9.38;4.65;;;;;;;;;;5137162;27;20056;-73
2022/01/15 04:58:59;;;;;;;9.73;5.68;;;;;;;;;;5137285;27;20398;-73
2022/01/15 05:01:25;;;;;;;11.38;6.15;;;;;;;;;;5136726;27;20115;-73
2022/01/15 05:03:51;;;;;;;13.20;6.63;;;;;;;;;;5136809;27;20035;-73
2022/01/15 05:06:17;;;;;;;13.63;7.63;;;;;;;;;;5136696;27;20031;-73
2022/01/15 05:08:45;;;;;;;11.68;6.57;;;;;;;;;;5137227;27;20117;-73
2022/01/15 05:11:27;;;;;;;12.05;6.93;;;;;;;;;;5136805;27;20081;-73
2022/01/15 05:13:53;;;;;;;14.07;7.30;;;;;;;;;;5137330;27;20058;-73
2022/01/15 05:16:19;;;;;;;12.20;5.88;;;;;;;;;;5136229;27;20084;-74
2022/01/15 05:18:45;;;;;;;12.88;7.15;;;;;;;;;;5135697;27;20069;-73
2022/01/15 05:21:11;;;;;;;10.88;6.40;;;;;;;;;;5136334;27;20042;-73
2022/01/15 05:23:37;;;;;;;8.55;5.55;;;;;;;;;;5136320;27;20039;-73
2022/01/15 05:26:03;;;;;;;9.20;6.00;;;;;;;;;;5136033;27;20128;-73
2022/01/15 05:28:30;;;;;;;11.27;5.18;;;;;;;;;;5135987;27;20039;-73
2022/01/15 05:30:56;;;;;;;10.70;5.65;;;;;;;;;;5136226;27;20031;-73
2022/01/15 05:33:22;;;;;;;8.43;5.38;;;;;;;;;;5135976;27;20035;-74
2022/01/15 05:35:48;;;;;;;8.85;4.72;;;;;;;;;;5136664;27;20031;-73
2022/01/15 05:38:14;;;;;;;7.18;4.20;;;;;;;;;;5135864;27;20031;-73
2022/01/15 05:40:40;;;;;;;7.82;4.00;;;;;;;;;;5136693;27;20031;-73
2022/01/15 05:43:07;;;;;;;7.20;4.45;;;;;;;;;;5136509;27;20500;-73
2022/01/15 05:45:33;;;;;;;9.05;4.72;;;;;;;;;;5135719;27;20099;-73
2022/01/15 05:47:59;;;;;;;7.47;4.05;;;;;;;;;;5135775;27;20119;-73
2022/01/15 05:50:25;;;;;;;9.50;4.90;;;;;;;;;;5136215;27;20039;-73
2022/01/15 05:52:51;;;;;;;9.10;4.53;;;;;;;;;;5135765;27;20035;-73
2022/01/15 05:55:18;;;;;;;8.88;4.85;;;;;;;;;;5135569;27;20598;-74
2022/01/15 05:57:44;;;;;;;6.60;4.55;;;;;;;;;;5135739;27;20031;-73
2022/01/15 06:00:10;;;;;;;11.40;6.22;;;;;;;;;;5136104;27;20462;-73
2022/01/15 06:02:36;;;;;;;15.43;7.35;;;;;;;;;;5135651;27;20039;-73
2022/01/15 06:05:02;;;;;;;10.18;5.97;;;;;;;;;;5135634;27;20435;-73
2022/01/15 06:07:29;;;;;;;10.32;6.57;;;;;;;;;;5135915;27;20110;-73
2022/01/15 06:09:55;;;;;;;8.93;5.40;;;;;;;;;;5135383;27;20039;-73
2022/01/15 06:12:28;;;;;;;8.82;5.63;;;;;;;;;;5135095;27;20047;-73
2022/01/15 06:14:54;;;;;;;13.45;7.88;;;;;;;;;;5136199;27;20043;-73
2022/01/15 06:17:20;;;;;;;13.18;7.50;;;;;;;;;;5135845;27;20599;-73
2022/01/15 06:19:46;;;;;;;11.93;6.35;;;;;;;;;;5135536;28;20046;-73
2022/01/15 06:22:12;;;;;;;14.60;8.32;;;;;;;;;;5135571;28;20070;-73
2022/01/15 06:24:38;;;;;;;12.25;6.88;;;;;;;;;;5135542;27;20047;-74
2022/01/15 06:27:05;;;;;;;11.43;6.28;;;;;;;;;;5135841;28;20049;-73
2022/01/15 06:29:31;;;;;;;10.23;5.40;;;;;;;;;;5135725;27;20050;-73
2022/01/15 06:31:57;;;;;;;7.53;5.05;;;;;;;;;;5139944;27;20047;-73
2022/01/15 06:34:23;;;;;;;13.68;6.05;;;;;;;;;;5139220;27;20115;-73
2022/01/15 06:36:49;;;;;;;9.70;5.63;;;;;;;;;;5139629;27;20091;-73
2022/01/15 06:39:15;;;;;;;10.68;5.68;;;;;;;;;;5138919;27;20035;-74
2022/01/15 06:41:42;;;;;;;12.07;5.90;;;;;;;;;;5139602;27;20066;-73
2022/01/15 06:44:08;;;;;;;9.77;5.80;;;;;;;;;;5139948;27;20125;-73
2022/01/15 06:46:34;;;;;;;10.07;5.57;;;;;;;;;;5139460;27;20110;-73
2022/01/15 06:49:00;;;;;;;13.70;8.85;;;;;;;;;;5139244;27;20039;-73
2022/01/15 06:51:26;;;;;;;18.67;10.65;;;;;;;;;;5139046;27;20043;-73
2022/01/15 06:53:52;;;;;;;25.67;16.17;;;;;;;;;;5139279;27;20144;-73
2022/01/15 06:56:18;;;;;;;21.90;13.15;;;;;;;;;;5139219;27;20046;-73
2022/01/15 06:58:46;;;;;;;18.08;10.10;;;;;;;;;;5139213;27;20047;-73
2022/01/15 07:01:12;;;;;;;20.08;11.93;;;;;;;;;;5138935;27;20035;-73
2022/01/15 07:03:38;;;;;;;11.15;6.90;;;;;;;;;;5138921;27;20039;-73
2022/01/15 07:06:04;;;;;;;14.00;9.13;;;;;;;;;;5139215;27;20035;-73
2022/01/15 07:08:30;;;;;;;12.68;8.15;;;;;;;;;;5138676;27;20351;-73
2022/01/15 07:10:56;;;;;;;17.17;8.20;;;;;;;;;;5139108;27;20428;-73
2022/01/15 07:13:22;;;;;;;16.33;9.23;;;;;;;;;;5139274;27;20038;-73
2022/01/15 07:15:49;;;;;;;13.35;8.50;;;;;;;;;;5134713;27;20034;-74
2022/01/15 07:18:17;;;;;;;13.82;8.45;;;;;;;;;;5134156;27;20040;-73
2022/01/15 07:20:44;;;;;;;13.48;8.15;;;;;;;;;;5126281;27;20042;-73
2022/01/15 07:23:10;;;;;;;13.27;8.32;;;;;;;;;;5138834;27;20045;-73
2022/01/15 07:25:36;;;;;;;13.50;8.95;;;;;;;;;;5138990;27;20035;-73
2022/01/15 07:28:03;;;;;;;28.27;17.35;;;;;;;;;;5127446;27;20508;-73
2022/01/15 07:30:29;;;;;;;46.10;22.80;;;;;;;;;;5118621;28;20107;-73
2022/01/15 07:32:55;;;;;;;31.98;19.08;;;;;;;;;;5117855;28;20039;-73
2022/01/15 07:35:21;;;;;;;28.98;16.80;;;;;;;;;;5118094;28;20036;-73
2022/01/15 07:37:47;;;;;;;19.25;12.93;;;;;;;;;;5125276;27;20035;-73
2022/01/15 07:40:14;;;;;;;22.33;13.52;;;;;;;;;;5118530;27;20598;-73
2022/01/15 07:42:40;;;;;;;18.90;10.70;;;;;;;;;;5117418;28;20063;-73
2022/01/15 07:45:08;;;;;;;16.25;10.77;;;;;;;;;;5122540;27;20500;-73
2022/01/15 07:47:34;;;;;;;19.13;10.25;;;;;;;;;;5138523;27;20106;-74
2022/01/15 07:50:00;;;;;;;20.08;12.07;;;;;;;;;;5138065;27;20087;-73
2022/01/15 07:52:26;;;;;;;18.92;11.73;;;;;;;;;;5138144;27;20041;-73
2022/01/15 07:54:53;;;;;;;19.60;10.73;;;;;;;;;;5136184;27;20111;-73
2022/01/15 07:57:19;;;;;;;17.95;9.50;;;;;;;;;;5118692;27;20059;-73
2022/01/15 07:59:45;;;;;;;16.92;9.52;;;;;;;;;;5131076;27;20489;-73
2022/01/15 08:02:11;;;;;;;22.33;12.23;;;;;;;;;;5132065;27;20047;-73
2022/01/15 08:04:37;;;;;;;25.42;13.35;;;;;;;;;;5122345;27;20426;-73
2022/01/15 08:07:03;;;;;;;25.75;17.30;;;;;;;;;;5117216;27;20040;-73
2022/01/15 08:09:30;;;;;;;28.40;15.10;;;;;;;;;;5122687;27;20043;-73
2022/01/15 08:11:56;;;;;;;24.40;14.10;;;;;;;;;;5122043;27;20046;-73
2022/01/15 08:14:22;;;;;;;31.75;16.45;;;;;;;;;;5126293;27;20099;-73
2022/01/15 08:16:48;;;;;;;33.33;20.13;;;;;;;;;;5121728;27;20039;-73
2022/01/15 08:19:14;;;;;;;31.48;18.55;;;;;;;;;;5117559;28;20123;-73
2022/01/15 08:21:42;;;;;;;39.63;25.02;;;;;;;;;;5120463;27;20039;-73
2022/01/15 08:24:09;;;;;;;34.25;21.70;;;;;;;;;;5136473;27;20118;-73
2022/01/15 08:26:36;;;;;;;33.67;20.67;;;;;;;;;;5137414;27;20109;-73
2022/01/15 08:29:02;;;;;;;28.13;17.20;;;;;;;;;;5137354;27;20039;-73
2022/01/15 08:31:28;;;;;;;21.13;13.35;;;;;;;;;;5128139;27;20035;-73
2022/01/15 08:33:54;;;;;;;23.98;15.82;;;;;;;;;;5133741;27;20363;-73
2022/01/15 08:36:21;;;;;;;21.40;11.68;;;;;;;;;;5124080;27;20051;-73
2022/01/15 08:38:47;;;;;;;17.60;10.00;;;;;;;;;;5125742;27;20040;-73
2022/01/15 08:41:14;;;;;;;5.45;3.13;;;;;;;;;;5125362;27;20035;-73
2022/01/15 08:43:41;;;;;;;5.35;3.53;;;;;;;;;;5124675;27;20051;-73
2022/01/15 08:46:07;;;;;;;5.25;2.80;;;;;;;;;;5124985;27;20093;-74
2022/01/15 08:48:33;;;;;;;5.40;2.90;;;;;;;;;;5121853;27;20389;-74
2022/01/15 08:51:00;;;;;;;5.35;2.65;;;;;;;;;;5118210;27;20038;-74
2022/01/15 08:53:26;;;;;;;4.65;2.70;;;;;;;;;;5119278;27;20041;-73
2022/01/15 08:55:53;;;;;;;2.92;2.63;;;;;;;;;;5125572;27;20027;-73
2022/01/15 08:58:20;;;;;;;12.10;3.30;;;;;;;;;;5125065;27;20042;-74
2022/01/15 09:00:46;;;;;;;8.98;3.78;;;;;;;;;;5130171;27;20133;-72
2022/01/15 09:03:13;;;;;;;7.05;4.13;;;;;;;;;;5134411;27;20035;-72
2022/01/15 09:05:39;;;;;;;7.70;4.57;;;;;;;;;;5135677;27;20110;-74
2022/01/15 09:08:06;;;;;;;4.60;3.40;;;;;;;;;;5129443;27;20055;-74
2022/01/15 09:10:32;;;;;;;5.22;2.30;;;;;;;;;;5125691;27;20028;-74
2022/01/15 09:12:58;;;;;;;2.83;2.05;;;;;;;;;;5131411;27;20043;-74
2022/01/15 09:15:24;;;;;;;3.90;2.30;;;;;;;;;;5120559;27;20047;-73
2022/01/15 09:17:51;;;;;;;4.47;2.63;;;;;;;;;;5122107;27;20393;-74
2022/01/15 09:20:17;;;;;;;7.07;2.08;;;;;;;;;;5123355;27;20078;-73
2022/01/15 09:22:43;;;;;;;3.70;2.38;;;;;;;;;;5118618;27;20122;-74
2022/01/15 09:25:10;;;;;;;4.43;2.90;;;;;;;;;;5130368;27;20046;-72
2022/01/15 09:30:21;;;;;;;4.60;3.00;;;;;;;;;;5120559;27;20079;-74
2022/01/15 09:32:49;;;;;;;7.63;2.72;;;;;;;;;;5119054;27;20119;-74
2022/01/15 09:35:16;;;;;;;6.82;3.50;;;;;;;;;;5128424;27;20110;-73
2022/01/15 09:37:43;;;;;;;7.65;4.20;;;;;;;;;;5120251;27;20076;-73
2022/01/15 09:40:10;;;;;;;5.43;3.63;;;;;;;;;;5122083;27;20055;-74
2022/01/15 09:42:38;;;;;;;8.18;4.00;;;;;;;;;;5127076;27;20050;-73
2022/01/15 09:45:05;;;;;;;6.13;4.10;;;;;;;;;;5123338;27;20070;-73
2022/01/15 09:47:32;;;;;;;6.20;4.05;;;;;;;;;;5121668;27;20500;-73
2022/01/15 09:49:59;;;;;;;6.05;4.20;;;;;;;;;;5121412;27;20118;-74
2022/01/15 09:52:25;;;;;;;8.52;5.90;;;;;;;;;;5123279;27;20057;-74
2022/01/15 09:54:51;;;;;;;8.27;5.90;;;;;;;;;;5119044;27;20119;-75
2022/01/15 09:57:18;;;;;;;8.07;5.20;;;;;;;;;;5124046;27;20042;-75
2022/01/15 09:59:44;;;;;;;9.52;4.95;;;;;;;;;;5120863;27;20347;-75
2022/01/15 10:02:10;;;;;;;7.43;4.80;;;;;;;;;;5121928;27;20378;-74
2022/01/15 10:04:37;;;;;;;9.70;6.13;;;;;;;;;;5120866;27;20035;-73
2022/01/15 10:07:13;;;;;;;11.45;6.30;;;;;;;;;;5113009;28;20062;-73
2022/01/15 10:09:41;;;;;;;7.85;4.55;;;;;;;;;;5118195;27;20031;-74
2022/01/15 10:12:08;;;;;;;5.57;2.97;;;;;;;;;;5125778;27;20079;-73
2022/01/15 10:14:38;;;;;;;7.38;5.47;;;;;;;;;;5134185;27;20046;-74
2022/01/15 10:17:22;;;;;;;5.87;3.53;;;;;;;;;;5119482;27;20062;-74
2022/01/15 10:19:48;;;;;;;5.05;3.00;;;;;;;;;;5123306;28;20270;-73
2022/01/15 10:22:18;;;;;;;5.95;2.70;;;;;;;;;;5125991;28;20053;-73
2022/01/15 10:25:01;;;;;;;5.93;3.85;;;;;;;;;;5134517;28;20059;-73
2022/01/15 10:27:27;;;;;;;4.25;2.60;;;;;;;;;;5127881;27;20038;-74
2022/01/15 10:29:55;;;;;;;5.13;2.65;;;;;;;;;;5117368;28;20553;-74
2022/01/15 10:32:22;;;;;;;4.75;1.92;;;;;;;;;;5134800;28;20061;-74
2022/01/15 10:34:48;;;;;;;3.92;1.67;;;;;;;;;;5132619;28;20230;-73
2022/01/15 10:37:16;;;;;;;2.00;1.60;;;;;;;;;;5134337;27;20075;-73
2022/01/15 10:39:56;;;;;;;2.83;1.27;;;;;;;;;;5135060;28;20095;-74
2022/01/15 10:42:23;;;;;;;3.42;1.77;;;;;;;;;;5121237;27;20052;-72
2022/01/15 10:44:57;;;;;;;2.15;1.35;;;;;;;;;;5121630;28;20031;-73
2022/01/15 10:47:25;;;;;;;2.35;1.42;;;;;;;;;;5134809;28;20035;-72
2022/01/15 10:49:52;;;;;;;4.43;2.00;;;;;;;;;;5122296;28;20493;-71
2022/01/15 10:52:22;;;;;;;2.55;1.33;;;;;;;;;;5122728;28;20035;-72
2022/01/15 10:54:51;;;;;;;1.45;1.10;;;;;;;;;;5119527;28;20028;-74
2022/01/15 10:57:19;;;;;;;2.10;1.20;;;;;;;;;;5124037;28;20032;-75
2022/01/15 10:59:58;;;;;;;1.70;1.00;;;;;;;;;;5121357;28;20039;-72
2022/01/15 11:02:24;;;;;;;1.77;1.00;;;;;;;;;;5127250;28;20039;-73
2022/01/15 11:04:50;;;;;;;2.70;1.70;;;;;;;;;;5125443;28;20043;-73
2022/01/15 11:07:17;;;;;;;1.63;1.13;;;;;;;;;;5123775;28;20061;-75
2022/01/15 11:09:44;;;;;;;2.45;1.02;;;;;;;;;;5127753;28;20044;-74
2022/01/15 11:12:11;;;;;;;1.83;1.38;;;;;;;;;;5119008;28;21094;-74
2022/01/15 11:14:37;;;;;;;1.67;1.23;;;;;;;;;;5124344;27;20123;-75
2022/01/15 11:17:04;;;;;;;2.55;1.20;;;;;;;;;;5098056;27;20354;-74
2022/01/15 11:19:31;;;;;;;2.03;1.05;;;;;;;;;;5124618;27;20039;-77
2022/01/15 11:21:58;;;;;;;2.03;1.20;;;;;;;;;;5126530;27;20152;-75
2022/01/15 11:24:24;;;;;;;2.13;1.52;;;;;;;;;;5124470;27;20118;-76
2022/01/15 11:26:58;;;;;;;3.65;2.20;;;;;;;;;;5125894;27;20126;-76
2022/01/15 11:29:25;;;;;;;9.63;5.43;;;;;;;;;;5135687;27;20109;-76
2022/01/15 11:31:56;;;;;;;4.43;2.15;;;;;;;;;;5126429;27;20528;-77
2022/01/15 11:34:22;;;;;;;;;;;;;;;;;;5125280;27;20115;-77
2022/01/15 11:36:48;;;;;;;2.25;1.63;;;;;;;;;;5118154;27;19904;-76
2022/01/15 11:39:20;;;;;;;2.15;1.30;;;;;;;;;;5127298;27;20603;-76
2022/01/15 11:41:49;;;;;;;1.70;1.25;;;;;;;;;;5117496;27;20067;-76
2022/01/15 11:44:17;;;;;;;1.20;0.90;;;;;;;;;;5129572;27;20031;-76
2022/01/15 11:46:52;;;;;;;2.22;1.30;;;;;;;;;;5117707;28;20039;-76
2022/01/15 11:49:24;;;;;;;1.83;1.05;;;;;;;;;;5118234;27;20034;-76
2022/01/15 11:51:50;;;;;;;2.97;1.20;;;;;;;;;;5134152;27;20039;-76
2022/01/15 11:54:17;;;;;;;2.08;1.55;;;;;;;;;;5117845;28;20028;-75
2022/01/15 11:56:43;;;;;;;2.55;1.05;;;;;;;;;;5123409;27;20042;-76
2022/01/15 11:59:25;;;;;;;2.28;1.48;;;;;;;;;;5137740;27;20032;-77
2022/01/15 12:01:52;;;;;;;3.60;1.67;;;;;;;;;;5121682;27;20055;-76
2022/01/15 12:04:27;;;;;;;3.65;2.40;;;;;;;;;;5124413;27;20039;-76
2022/01/15 12:07:02;;;;;;;2.20;1.60;;;;;;;;;;5136089;27;20042;-76
2022/01/15 12:09:32;;;;;;;1.48;1.30;;;;;;;;;;5117508;28;20043;-76
2022/01/15 12:11:58;;;;;;;3.08;1.40;;;;;;;;;;5124755;27;20044;-76
2022/01/15 12:14:53;;;;;;;1.40;1.00;;;;;;;;;;5123955;27;20038;-75
2022/01/15 12:17:27;;;;;;;1.77;1.33;;;;;;;;;;5106177;27;20039;-75
2022/01/15 12:19:54;;;;;;;3.03;2.67;;;;;;;;;;5132971;27;20079;-76
2022/01/15 12:22:39;;;;;;;2.22;1.60;;;;;;;;;;5127053;27;20043;-74
2022/01/15 12:25:08;;;;;;;2.92;1.88;;;;;;;;;;5121048;27;20074;-75
2022/01/15 12:27:35;;;;;;;2.40;1.55;;;;;;;;;;5117092;27;20040;-76
2022/01/15 12:30:11;;;;;;;3.00;1.90;;;;;;;;;;5130476;27;20053;-77
2022/01/15 12:32:40;;;;;;;3.33;2.45;;;;;;;;;;5122080;27;20520;-76
2022/01/15 12:35:15;;;;;;;4.18;1.60;;;;;;;;;;5133717;27;20067;-76
2022/01/15 12:38:01;;;;;;;0.98;0.93;;;;;;;;;;5127858;27;20624;-76
2022/01/15 12:40:36;;;;;;;13.15;8.82;;;;;;;;;;5123232;27;20148;-76
2022/01/15 12:43:04;;;;;;;5.47;3.92;;;;;;;;;;5135088;27;20034;-73
2022/01/15 12:45:30;;;;;;;2.38;1.88;;;;;;;;;;5132360;27;20046;-74
2022/01/15 12:47:56;;;;;;;1.20;0.90;;;;;;;;;;5132635;27;20061;-76
2022/01/15 12:50:23;;;;;;;1.77;1.15;;;;;;;;;;5123802;27;20031;-76
2022/01/15 12:53:00;;;;;;;4.40;2.60;;;;;;;;;;5124278;27;20026;-76
2022/01/15 12:55:30;;;;;;;3.25;2.03;;;;;;;;;;5120592;27;20040;-75
2022/01/15 12:57:56;;;;;;;2.60;1.55;;;;;;;;;;5123326;27;20077;-75
2022/01/15 13:00:24;;;;;;;3.08;2.20;;;;;;;;;;5116612;27;20046;-76
2022/01/15 13:02:53;;;;;;;10.57;6.65;;;;;;;;;;5135900;27;20486;-76
2022/01/15 13:05:20;;;;;;;1.48;1.27;;;;;;;;;;5132113;27;20032;-76
2022/01/15 13:07:50;;;;;;;13.43;11.38;;;;;;;;;;5115537;28;20563;-75
2022/01/15 13:10:29;;;;;;;2.08;1.50;;;;;;;;;;5117414;27;20035;-76
2022/01/15 13:12:55;;;;;;;2.20;1.60;;;;;;;;;;5116919;27;20055;-76
2022/01/15 13:15:22;;;;;;;2.97;1.45;;;;;;;;;;5127958;27;20129;-76
2022/01/15 13:17:49;;;;;;;2.03;1.25;;;;;;;;;;5121095;27;20126;-75
2022/01/15 13:20:31;;;;;;;1.40;1.10;;;;;;;;;;5121616;27;20061;-76
2022/01/15 13:22:58;;;;;;;3.40;1.10;;;;;;;;;;5115530;27;20039;-76
2022/01/15 13:25:25;;;;;;;1.92;1.48;;;;;;;;;;5135598;27;20388;-75
2022/01/15 13:27:51;;;;;;;5.43;2.80;;;;;;;;;;5135642;27;20119;-75
2022/01/15 13:30:19;;;;;;;1.60;1.40;;;;;;;;;;5134652;27;20416;-75
2022/01/15 13:33:04;;;;;;;2.65;1.90;;;;;;;;;;5135760;27;20066;-76
2022/01/15 13:35:41;;;;;;;2.55;1.60;;;;;;;;;;5130311;27;20059;-75
2022/01/15 13:38:09;;;;;;;4.82;2.38;;;;;;;;;;5113558;28;20044;-75
2022/01/15 13:40:37;;;;;;;8.40;3.97;;;;;;;;;;5125532;27;20119;-76
2022/01/15 13:43:05;;;;;;;5.35;3.90;;;;;;;;;;5135124;27;20043;-76
2022/01/15 13:45:32;;;;;;;5.10;3.40;;;;;;;;;;5135411;27;20062;-75
2022/01/15 13:48:08;;;;;;;6.78;4.13;;;;;;;;;;5116126;27;20183;-76
2022/01/15 13:53:40;;;;;;;7.43;4.18;;;;;;;;;;5126368;27;20038;-76
2022/01/15 13:56:13;;;;;;;4.95;2.67;;;;;;;;;;5124715;27;20042;-75
2022/01/15 13:58:39;;;;;;;5.15;3.70;;;;;;;;;;5114667;28;20043;-76
2022/01/15 14:01:24;;;;;;;6.28;3.20;;;;;;;;;;5122603;27;20042;-76
2022/01/15 14:03:50;;;;;;;4.60;2.95;;;;;;;;;;5114706;28;20124;-75
2022/01/15 14:06:17;;;;;;;8.65;5.15;;;;;;;;;;5117260;27;20035;-74
2022/01/15 14:08:43;;;;;;;3.53;1.80;;;;;;;;;;5134494;27;20035;-75
2022/01/15 14:11:10;;;;;;;7.20;3.15;;;;;;;;;;5134054;27;20178;-75
2022/01/15 14:13:36;;;;;;;4.72;3.55;;;;;;;;;;5135357;27;20099;-75
2022/01/15 14:16:04;;;;;;;3.63;2.42;;;;;;;;;;5134927;27;20071;-74
2022/01/15 14:18:40;;;;;;;9.38;5.80;;;;;;;;;;5133837;27;20122;-74
2022/01/15 14:21:38;;;;;;;8.02;4.18;;;;;;;;;;5115277;28;20138;-76
2022/01/15 14:24:17;;;;;;;11.18;6.00;;;;;;;;;;5135070;28;20386;-75
2022/01/15 14:26:53;;;;;;;13.07;7.28;;;;;;;;;;5126692;28;20546;-76
2022/01/15 14:29:19;;;;;;;3.90;2.42;;;;;;;;;;5135333;28;20102;-76
2022/01/15 14:31:45;;;;;;;5.93;3.50;;;;;;;;;;5134638;28;20047;-76
2022/01/15 14:34:11;;;;;;;2.30;1.30;;;;;;;;;;5135043;28;20039;-76
2022/01/15 14:36:38;;;;;;;1.90;1.42;;;;;;;;;;5123354;28;20088;-76
2022/01/15 14:39:04;;;;;;;3.10;2.80;;;;;;;;;;5125706;28;20176;-76
2022/01/15 14:41:34;;;;;;;3.33;1.60;;;;;;;;;;5114243;28;20406;-76
2022/01/15 14:44:01;;;;;;;2.38;1.60;;;;;;;;;;5131730;28;20035;-76
2022/01/15 14:46:28;;;;;;;2.97;1.80;;;;;;;;;;5135005;28;20110;-77
2022/01/15 14:48:54;;;;;;;3.20;1.90;;;;;;;;;;5135193;28;20035;-76
2022/01/15 14:51:20;;;;;;;6.72;2.88;;;;;;;;;;5134862;27;20042;-75
2022/01/15 14:53:47;;;;;;;3.40;1.55;;;;;;;;;;5127535;27;20556;-75
2022/01/15 14:56:13;;;;;;;6.03;2.22;;;;;;;;;;5120871;27;20047;-75
2022/01/15 14:58:39;;;;;;;5.80;3.50;;;;;;;;;;5118422;28;20482;-75
2022/01/15 15:01:05;;;;;;;3.70;1.48;;;;;;;;;;5118619;28;20517;-74
2022/01/15 15:03:32;;;;;;;2.78;1.42;;;;;;;;;;5118460;28;20035;-74